Austwell, TX

8:16 AM CDT on May 06, 2015 (GMT -0500)
Near the bank of San Antonio river, 3 Miles West of McFadden | | Change Station
CLOSE
Current Station
Personal Weather Station
Location: Victoria, TX
Elevation: 92 ft
Nearby Weather Stations

Elev 92 ft 28.55 °N, 97.06 °W | Updated 1 minute ago

Overcast
Overcast
64.0 °F
Feels Like 64.0 °F
N
4.5
Wind Variable Wind from ESE
Gusts 7.4 mph

Today
High -- | Low -- °F
--% Chance of Precip.
Yesterday
High -- | Low -- °F
Precip. -- in
6:43 AM 8:05 PM
Waning Gibbous, 94% visible
Pressure 29.91 in
Visibility 8.0 miles
Clouds Scattered Clouds 1100 ft
Scattered Clouds 2400 ft
Mostly Cloudy 8000 ft
Dew Point 40 °F
Humidity 41%
Rainfall 0.00 in
Snow Depth Not available.
UV 1 out of 12
Pollen 5.80 out of 12
Air Quality Not available.
Flu Activity Sporadic
SPECI KRKP 061306Z AUTO 15012G18KT 8SM SCT011 SCT024 BKN080 25/22 A2991 RMK AO2 T02500222

More Conditions Fewer Conditions

Pressure 29.91 in
Visibility 8.0 miles
Clouds Scattered Clouds 1100 ft
Scattered Clouds 2400 ft
Mostly Cloudy 8000 ft
Dew Point 40 °F
Humidity 41%
Rainfall 0.00 in
Snow Depth Not available.
UV 1 out of 12
Pollen 5.80 out of 12
Air Quality Not available.
Flu Activity Sporadic
SPECI KRKP 061306Z AUTO 15012G18KT 8SM SCT011 SCT024 BKN080 25/22 A2991 RMK AO2 T02500222

More Conditions Fewer Conditions

10-Day Weather Forecast

Almanac

Astronomy

May. 06, 2015 Rise Set
Actual Time
Civil Twilight
Nautical Twilight
Astronomical Twilight
Moon
Length of Visible Light
Length of Day
Tomorrow will be .
, % of the Moon is Illuminated

Today's Extremes

State Highs State Lows

Community

WunderPhotos

Upload Photos

1,818,894 photos uploaded!

WunderBlogs® & News

Nearby

Air Quality

  Air Quality AQ Index Pollutant
Not available.

Snow Depth

Station Depth Elevation

Earthquake Activity

City Distance Mag. Time & Date
Minimum magnitude displayed is 2.5.

Coastal Water Temperatures

Place Temperature

Stations

Nearby Weather Stations

Station Location Temp. Windchill Dew Point Humidity Wind Precip. Elev Updated Type